createdAt,value
2023-01-08T00:02:16.107Z,100451.41
2023-01-08T00:04:42.684Z,100447.50
2023-01-08T00:07:09.481Z,100444.38
2023-01-08T00:09:36.232Z,100435.09
2023-01-08T00:12:02.980Z,100441.34
2023-01-08T00:14:30.652Z,100437.47
2023-01-08T00:16:57.495Z,100436.28
2023-01-08T00:19:24.226Z,100428.91
2023-01-08T00:21:50.878Z,100428.19
2023-01-08T00:24:17.434Z,100430.91
2023-01-08T00:26:44.055Z,100424.31
2023-01-08T00:29:10.741Z,100411.53
2023-01-08T00:31:37.435Z,100407.66
2023-01-08T00:34:04.214Z,100404.97
2023-01-08T00:36:30.862Z,100409.97
2023-01-08T00:38:59.962Z,100413.81
2023-01-08T00:41:26.570Z,100408.00
2023-01-08T00:43:53.114Z,100396.75
2023-01-08T00:46:20.008Z,100385.53
2023-01-08T00:48:46.808Z,100380.84
2023-01-08T00:51:13.558Z,100379.31
2023-01-08T00:53:40.117Z,100379.69
2023-01-08T00:56:09.565Z,100374.28
2023-01-08T00:58:36.299Z,100373.50
2023-01-08T01:01:08.860Z,100376.97
2023-01-08T01:03:35.567Z,100376.16
2023-01-08T01:06:04.071Z,100367.31
2023-01-08T01:08:30.830Z,100376.56
2023-01-08T01:10:57.652Z,100366.09
2023-01-08T01:13:24.301Z,100364.97
2023-01-08T01:15:59.266Z,100367.28
2023-01-08T01:18:26.369Z,100373.06
2023-01-08T01:20:53.266Z,100356.03
2023-01-08T01:23:19.852Z,100355.25
2023-01-08T01:25:47.666Z,100349.84
2023-01-08T01:28:14.317Z,100354.50
2023-01-08T01:30:40.940Z,100347.94
2023-01-08T01:33:07.669Z,100356.47
2023-01-08T01:35:34.277Z,100353.75
2023-01-08T01:38:00.833Z,100344.09
2023-01-08T01:40:27.445Z,100362.31
2023-01-08T01:42:54.164Z,100370.06
2023-01-08T01:45:24.082Z,100371.63
2023-01-08T01:48:10.314Z,100375.53
2023-01-08T01:50:42.770Z,100375.94
2023-01-08T01:53:15.171Z,100369.72
2023-01-08T01:55:43.567Z,100367.81
2023-01-08T01:58:23.172Z,100375.13
2023-01-08T02:00:53.984Z,100368.94
2023-01-08T02:03:24.061Z,100369.31
2023-01-08T02:06:00.621Z,100379.38
2023-01-08T02:08:55.210Z,100371.63
2023-01-08T02:11:45.478Z,100379.00
2023-01-08T02:14:22.555Z,100372.81
2023-01-08T02:17:00.071Z,100368.56
2023-01-08T02:20:18.611Z,100366.63
2023-01-08T02:23:02.615Z,100364.31
2023-01-08T02:25:45.658Z,100352.72
2023-01-08T02:28:16.156Z,100349.19
2023-01-08T02:31:34.117Z,100344.94
2023-01-08T02:46:34.614Z,100337.56
2023-01-08T02:52:19.426Z,100335.63
2023-01-08T02:58:22.008Z,100332.13
2023-01-08T03:05:12.486Z,100330.19
2023-01-08T03:14:40.992Z,100331.34
2023-01-08T04:15:46.975Z,100316.94
2023-01-08T05:19:10.629Z,100284.31
2023-01-08T06:20:19.893Z,100281.06
2023-01-08T06:22:33.695Z,100271.25
2023-01-08T06:22:54.163Z,100281.88
2023-01-08T06:31:55.687Z,100271.16
2023-01-08T06:37:13.396Z,100274.94
2023-01-08T06:39:52.403Z,100282.25
2023-01-08T06:43:03.706Z,100283.38
2023-01-08T06:45:11.919Z,100296.53
2023-01-08T06:49:02.557Z,100291.09
2023-01-08T07:22:17.655Z,100288.41
2023-01-08T07:24:46.728Z,100287.25
2023-01-08T07:30:46.375Z,100291.09
2023-01-08T07:33:36.071Z,100286.03
2023-01-08T07:45:54.308Z,100266.72
2023-01-08T08:04:57.187Z,100269.53
2023-01-08T08:16:48.985Z,100265.59
2023-01-08T08:19:18.097Z,100265.25
2023-01-08T08:36:38.240Z,100255.22
2023-01-08T09:05:07.391Z,100217.50
2023-01-08T09:07:58.174Z,100222.88
2023-01-08T10:40:57.244Z,100182.34
2023-01-08T10:43:30.020Z,100179.69
2023-01-08T10:50:58.471Z,100164.22
2023-01-08T11:08:42.627Z,100152.72
2023-01-08T11:11:13.535Z,100153.91
2023-01-08T11:17:18.662Z,100141.53
2023-01-08T11:35:14.186Z,100107.50
2023-01-08T11:38:16.535Z,100092.00
2023-01-08T11:41:12.500Z,100107.13
2023-01-08T12:06:22.290Z,100067.25
2023-01-08T12:09:30.216Z,100057.16
2023-01-08T12:26:28.847Z,100043.97
2023-01-08T12:29:52.276Z,100041.25
2023-01-08T12:32:42.774Z,100048.25
2023-01-08T12:41:38.566Z,100043.59
2023-01-08T12:47:22.349Z,100033.88
2023-01-08T12:50:02.136Z,100031.94
2023-01-08T12:52:53.269Z,100021.09
2023-01-08T12:55:53.691Z,100020.72
2023-01-08T12:59:05.181Z,100006.75
2023-01-08T13:01:58.037Z,100002.50
2023-01-08T13:04:28.875Z,100007.91
2023-01-08T13:07:04.340Z,100011.00
2023-01-08T13:09:32.332Z,100002.50
2023-01-08T13:12:01.647Z,100006.00
2023-01-08T13:20:24.727Z,99996.28
2023-01-08T13:23:17.935Z,99994.72
2023-01-08T13:26:20.652Z,99977.69
2023-01-08T13:28:50.226Z,99974.97
2023-01-08T13:31:57.064Z,99974.59
2023-01-08T13:37:29.521Z,99974.63
2023-01-08T13:42:43.927Z,99957.53
2023-01-08T13:45:16.208Z,99948.25
2023-01-08T13:47:44.311Z,99956.81
2023-01-08T13:50:20.928Z,99938.97
2023-01-08T13:52:58.958Z,99944.78
2023-01-08T13:55:34.211Z,99939.75
2023-01-08T13:58:07.235Z,99940.16
2023-01-08T14:01:05.538Z,99928.13
2023-01-08T14:04:12.906Z,99938.19
2023-01-08T14:06:39.677Z,99933.97
2023-01-08T14:09:22.779Z,99931.63
2023-01-08T14:24:10.437Z,99925.06
2023-01-08T14:26:58.326Z,99926.25
2023-01-08T15:04:14.932Z,99890.66
2023-01-08T15:05:34.086Z,99896.09
2023-01-08T15:11:08.615Z,99871.31
2023-01-08T15:14:51.227Z,99868.63
2023-01-08T15:22:16.103Z,99858.16
2023-01-08T15:23:22.136Z,99864.75
2023-01-08T15:27:10.372Z,99857.78
2023-01-08T15:36:05.119Z,99863.25
2023-01-08T15:43:01.475Z,99859.72
2023-01-08T15:46:17.705Z,99857.41
2023-01-08T15:51:04.753Z,99855.09
2023-01-08T15:55:18.665Z,99853.94
2023-01-08T16:00:55.051Z,99860.13
2023-01-08T16:07:04.774Z,99840.78
2023-01-08T16:09:34.441Z,99829.94
2023-01-08T16:12:03.704Z,99826.47
2023-01-08T16:12:21.978Z,99849.69
2023-01-08T16:17:42.672Z,99819.50
2023-01-08T16:22:34.098Z,99831.88
2023-01-08T16:29:02.104Z,99820.66
2023-01-08T16:31:38.302Z,99821.03
2023-01-08T16:34:44.806Z,99822.97
2023-01-08T16:38:09.089Z,99812.13
2023-01-08T16:41:03.638Z,99817.94
2023-01-08T16:52:47.041Z,99827.59
2023-01-08T16:56:19.465Z,99834.56
2023-01-08T16:58:53.116Z,99833.38
2023-01-08T17:01:22.227Z,99833.78
2023-01-08T17:03:54.477Z,99828.00
2023-01-08T17:09:11.434Z,99810.59
2023-01-08T17:11:44.017Z,99817.19
2023-01-08T17:14:40.470Z,99810.97
2023-01-08T17:17:08.711Z,99802.47
2023-01-08T17:20:02.230Z,99791.69
2023-01-08T17:22:57.879Z,99795.13
2023-01-08T17:25:53.445Z,99796.31
2023-01-08T17:31:26.480Z,99786.66
2023-01-08T17:36:39.199Z,99771.56
2023-01-08T17:39:07.283Z,99766.94
2023-01-08T17:41:59.771Z,99768.84
2023-01-08T17:44:55.373Z,99765.00
2023-01-08T17:47:21.936Z,99757.63
2023-01-08T17:49:55.662Z,99756.09
2023-01-08T17:52:24.549Z,99751.44
2023-01-08T17:54:55.022Z,99747.56
2023-01-08T18:00:10.260Z,99746.44
2023-01-08T18:03:02.811Z,99733.66
2023-01-08T18:07:12.117Z,99730.19
2023-01-08T18:19:18.879Z,99708.16
2023-01-08T18:24:27.615Z,99704.28
2023-01-08T18:32:57.614Z,99688.44
2023-01-08T18:43:17.731Z,99675.66
2023-01-08T18:44:35.622Z,99674.53
2023-01-08T18:50:35.961Z,99666.81
2023-01-08T18:53:54.986Z,99663.34
2023-01-08T18:57:03.421Z,99660.63
2023-01-08T18:59:58.513Z,99655.22
2023-01-08T19:02:33.345Z,99642.44
2023-01-08T19:05:04.494Z,99636.66
2023-01-08T19:07:31.861Z,99647.09
2023-01-08T19:10:32.139Z,99636.66
2023-01-08T19:13:23.017Z,99631.25
2023-01-08T19:18:39.850Z,99638.63
2023-01-08T19:22:22.184Z,99633.97
2023-01-08T19:28:15.330Z,99632.03
2023-01-08T19:30:18.683Z,99627.03
2023-01-08T19:32:47.679Z,99614.66
2023-01-08T19:37:19.569Z,99618.91
2023-01-08T19:38:37.946Z,99622.75
2023-01-08T19:42:12.205Z,99604.22
2023-01-08T19:51:08.310Z,99600.75
2023-01-08T19:53:09.157Z,99594.53
2023-01-08T19:55:37.417Z,99592.97
2023-01-08T19:58:31.766Z,99591.84
2023-01-08T20:01:18.729Z,99588.72
2023-01-08T20:03:49.096Z,99577.13
2023-01-08T20:07:06.272Z,99572.09
2023-01-08T20:09:33.866Z,99568.63
2023-01-08T20:12:33.424Z,99572.50
2023-01-08T20:15:02.370Z,99562.84
2023-01-08T20:17:31.375Z,99560.13
2023-01-08T20:25:43.289Z,99548.53
2023-01-08T20:28:20.487Z,99560.16
2023-01-08T20:31:16.423Z,99557.44
2023-01-08T20:34:46.370Z,99548.94
2023-01-08T20:36:41.668Z,99550.88
2023-01-08T20:39:13.877Z,99536.16
2023-01-08T20:42:08.493Z,99536.16
2023-01-08T20:46:03.174Z,99534.63
2023-01-08T20:56:50.328Z,99517.59
2023-01-08T20:59:16.632Z,99514.91
2023-01-08T21:04:44.378Z,99513.38
2023-01-08T21:07:13.789Z,99511.84
2023-01-08T21:12:49.710Z,99506.06
2023-01-08T21:16:06.237Z,99505.28
2023-01-08T21:22:25.565Z,99496.41
2023-01-08T21:24:55.616Z,99489.06
2023-01-08T21:28:00.343Z,99487.91
2023-01-08T21:37:17.335Z,99472.47
2023-01-08T21:40:31.041Z,99471.31
2023-01-08T21:46:01.307Z,99454.31
2023-01-08T21:53:11.049Z,99449.31
2023-01-08T21:55:11.526Z,99447.75
2023-01-08T22:03:14.558Z,99438.84
2023-01-08T22:18:00.421Z,99435.34
2023-01-08T22:34:15.390Z,99438.38
2023-01-08T22:36:43.072Z,99468.53
2023-01-08T22:46:03.681Z,99456.19
2023-01-08T22:48:30.702Z,99453.09
2023-01-08T22:51:09.352Z,99450.78
2023-01-08T22:53:38.969Z,99455.81
2023-01-08T22:56:12.146Z,99453.88
2023-01-08T22:58:40.730Z,99444.22
2023-01-08T23:01:19.609Z,99450.81
2023-01-08T23:03:50.913Z,99449.63
2023-01-08T23:06:19.499Z,99450.41
2023-01-08T23:08:48.891Z,99442.66
2023-01-08T23:11:18.224Z,99431.47
2023-01-08T23:13:45.957Z,99441.50
2023-01-08T23:16:16.721Z,99452.31
2023-01-08T23:18:43.858Z,99453.88
2023-01-08T23:21:13.468Z,99462.00
2023-01-08T23:23:40.582Z,99468.19
2023-01-08T23:26:10.702Z,99471.31
2023-01-08T23:28:38.146Z,99475.16
2023-01-08T23:31:09.909Z,99484.03
2023-01-08T23:33:36.946Z,99472.47
2023-01-08T23:36:04.758Z,99481.34
2023-01-08T23:38:31.803Z,99472.09
2023-01-08T23:40:59.152Z,99471.69
2023-01-08T23:43:25.818Z,99477.09
2023-01-08T23:45:53.055Z,99475.19
2023-01-08T23:48:19.792Z,99472.91
2023-01-08T23:50:46.670Z,99475.59
2023-01-08T23:53:13.435Z,99473.28
2023-01-08T23:55:40.162Z,99482.19
2023-01-08T23:58:08.156Z,99480.63
